sensor_id;sensor_type;location;lat;lon;timestamp;temperature;humidity
10802;DHT22;5453;50.852;7.102;2023-06-14T00:01:18;20.90;62.80
10802;DHT22;5453;50.852;7.102;2023-06-14T00:03:52;20.80;62.90
10802;DHT22;5453;50.852;7.102;2023-06-14T00:06:24;20.80;62.90
10802;DHT22;5453;50.852;7.102;2023-06-14T00:08:56;20.70;62.90
10802;DHT22;5453;50.852;7.102;2023-06-14T00:11:28;20.70;63.10
10802;DHT22;5453;50.852;7.102;2023-06-14T00:14:02;20.70;63.30
10802;DHT22;5453;50.852;7.102;2023-06-14T00:16:34;20.70;63.10
10802;DHT22;5453;50.852;7.102;2023-06-14T00:19:07;20.70;63.40
10802;DHT22;5453;50.852;7.102;2023-06-14T00:21:40;20.60;63.70
10802;DHT22;5453;50.852;7.102;2023-06-14T00:24:13;20.60;63.90
10802;DHT22;5453;50.852;7.102;2023-06-14T00:26:46;20.60;64.00
10802;DHT22;5453;50.852;7.102;2023-06-14T00:29:20;20.50;63.90
10802;DHT22;5453;50.852;7.102;2023-06-14T00:31:52;20.50;64.60
10802;DHT22;5453;50.852;7.102;2023-06-14T00:34:24;20.50;65.10
10802;DHT22;5453;50.852;7.102;2023-06-14T00:36:56;20.40;64.90
10802;DHT22;5453;50.852;7.102;2023-06-14T00:39:28;20.40;65.20
10802;DHT22;5453;50.852;7.102;2023-06-14T00:42:00;20.30;65.90
10802;DHT22;5453;50.852;7.102;2023-06-14T00:44:34;20.30;66.50
10802;DHT22;5453;50.852;7.102;2023-06-14T00:47:06;20.10;66.40
10802;DHT22;5453;50.852;7.102;2023-06-14T00:49:38;20.10;66.60
10802;DHT22;5453;50.852;7.102;2023-06-14T00:52:10;20.00;67.20
10802;DHT22;5453;50.852;7.102;2023-06-14T00:54:43;20.00;67.70
10802;DHT22;5453;50.852;7.102;2023-06-14T00:57:16;19.90;67.80
10802;DHT22;5453;50.852;7.102;2023-06-14T00:59:49;19.70;68.00
10802;DHT22;5453;50.852;7.102;2023-06-14T01:02:21;19.70;68.60
10802;DHT22;5453;50.852;7.102;2023-06-14T01:04:54;19.60;69.10
10802;DHT22;5453;50.852;7.102;2023-06-14T01:07:39;19.50;70.00
10802;DHT22;5453;50.852;7.102;2023-06-14T01:10:32;19.50;70.50
10802;DHT22;5453;50.852;7.102;2023-06-14T01:13:12;19.30;71.00
10802;DHT22;5453;50.852;7.102;2023-06-14T01:15:51;19.30;71.70
10802;DHT22;5453;50.852;7.102;2023-06-14T01:18:27;19.20;72.20
10802;DHT22;5453;50.852;7.102;2023-06-14T01:21:00;19.20;72.10
10802;DHT22;5453;50.852;7.102;2023-06-14T01:23:37;19.20;72.00
10802;DHT22;5453;50.852;7.102;2023-06-14T01:26:09;19.20;70.90
10802;DHT22;5453;50.852;7.102;2023-06-14T01:28:41;19.20;71.40
10802;DHT22;5453;50.852;7.102;2023-06-14T01:31:20;19.20;71.70
10802;DHT22;5453;50.852;7.102;2023-06-14T01:33:53;19.10;71.20
10802;DHT22;5453;50.852;7.102;2023-06-14T01:36:28;19.00;70.70
10802;DHT22;5453;50.852;7.102;2023-06-14T01:39:04;19.00;70.70
10802;DHT22;5453;50.852;7.102;2023-06-14T01:41:37;19.00;70.70
10802;DHT22;5453;50.852;7.102;2023-06-14T01:44:10;19.00;70.90
10802;DHT22;5453;50.852;7.102;2023-06-14T01:46:45;19.00;71.10
10802;DHT22;5453;50.852;7.102;2023-06-14T01:49:17;19.00;71.60
10802;DHT22;5453;50.852;7.102;2023-06-14T01:51:49;18.90;72.20
10802;DHT22;5453;50.852;7.102;2023-06-14T01:54:22;18.90;72.60
10802;DHT22;5453;50.852;7.102;2023-06-14T01:56:56;18.80;73.10
10802;DHT22;5453;50.852;7.102;2023-06-14T01:59:28;18.80;73.90
10802;DHT22;5453;50.852;7.102;2023-06-14T02:02:03;18.70;74.20
10802;DHT22;5453;50.852;7.102;2023-06-14T02:04:36;18.60;74.80
10802;DHT22;5453;50.852;7.102;2023-06-14T02:07:08;18.60;75.50
10802;DHT22;5453;50.852;7.102;2023-06-14T02:09:42;18.50;76.00
10802;DHT22;5453;50.852;7.102;2023-06-14T02:12:14;18.40;76.20
10802;DHT22;5453;50.852;7.102;2023-06-14T02:14:46;18.30;76.30
10802;DHT22;5453;50.852;7.102;2023-06-14T02:17:19;18.30;76.70
10802;DHT22;5453;50.852;7.102;2023-06-14T02:19:51;18.20;77.40
10802;DHT22;5453;50.852;7.102;2023-06-14T02:22:23;18.20;78.00
10802;DHT22;5453;50.852;7.102;2023-06-14T02:24:56;18.10;78.50
10802;DHT22;5453;50.852;7.102;2023-06-14T02:27:28;18.00;79.10
10802;DHT22;5453;50.852;7.102;2023-06-14T02:30:01;17.90;79.60
10802;DHT22;5453;50.852;7.102;2023-06-14T02:32:33;17.90;80.30
10802;DHT22;5453;50.852;7.102;2023-06-14T02:35:07;17.80;80.80
10802;DHT22;5453;50.852;7.102;2023-06-14T02:37:40;17.70;81.40
10802;DHT22;5453;50.852;7.102;2023-06-14T02:40:14;17.70;81.80
10802;DHT22;5453;50.852;7.102;2023-06-14T02:42:46;17.60;82.90
10802;DHT22;5453;50.852;7.102;2023-06-14T02:45:18;17.60;82.80
10802;DHT22;5453;50.852;7.102;2023-06-14T02:47:51;17.60;83.20
10802;DHT22;5453;50.852;7.102;2023-06-14T02:50:24;17.50;83.50
10802;DHT22;5453;50.852;7.102;2023-06-14T02:52:56;17.50;83.90
10802;DHT22;5453;50.852;7.102;2023-06-14T02:55:30;17.50;84.40
10802;DHT22;5453;50.852;7.102;2023-06-14T02:58:02;17.40;84.80
10802;DHT22;5453;50.852;7.102;2023-06-14T03:00:34;17.40;85.10
10802;DHT22;5453;50.852;7.102;2023-06-14T03:03:07;17.40;85.50
10802;DHT22;5453;50.852;7.102;2023-06-14T03:05:46;17.30;85.60
10802;DHT22;5453;50.852;7.102;2023-06-14T03:08:23;17.20;85.80
10802;DHT22;5453;50.852;7.102;2023-06-14T03:11:00;17.20;86.50
10802;DHT22;5453;50.852;7.102;2023-06-14T03:13:34;17.10;87.00
10802;DHT22;5453;50.852;7.102;2023-06-14T03:16:08;17.10;87.40
10802;DHT22;5453;50.852;7.102;2023-06-14T03:18:43;17.10;87.80
10802;DHT22;5453;50.852;7.102;2023-06-14T03:21:16;17.00;87.90
10802;DHT22;5453;50.852;7.102;2023-06-14T03:23:49;17.00;88.30
10802;DHT22;5453;50.852;7.102;2023-06-14T03:26:23;16.90;88.60
10802;DHT22;5453;50.852;7.102;2023-06-14T03:28:57;16.90;89.10
10802;DHT22;5453;50.852;7.102;2023-06-14T03:31:29;16.90;89.50
10802;DHT22;5453;50.852;7.102;2023-06-14T03:34:05;16.90;89.90
10802;DHT22;5453;50.852;7.102;2023-06-14T03:36:37;16.80;90.10
10802;DHT22;5453;50.852;7.102;2023-06-14T03:39:09;16.80;90.30
10802;DHT22;5453;50.852;7.102;2023-06-14T03:41:42;16.80;90.50
10802;DHT22;5453;50.852;7.102;2023-06-14T03:44:15;16.80;90.60
10802;DHT22;5453;50.852;7.102;2023-06-14T03:46:49;16.80;90.60
10802;DHT22;5453;50.852;7.102;2023-06-14T03:49:22;16.70;90.50
10802;DHT22;5453;50.852;7.102;2023-06-14T03:51:54;16.80;90.60
10802;DHT22;5453;50.852;7.102;2023-06-14T03:54:28;16.80;90.70
10802;DHT22;5453;50.852;7.102;2023-06-14T03:57:04;16.80;90.50
10802;DHT22;5453;50.852;7.102;2023-06-14T03:59:37;16.70;90.50
10802;DHT22;5453;50.852;7.102;2023-06-14T04:02:09;16.80;90.70
10802;DHT22;5453;50.852;7.102;2023-06-14T04:04:42;16.80;90.80
10802;DHT22;5453;50.852;7.102;2023-06-14T04:07:16;16.70;91.00
10802;DHT22;5453;50.852;7.102;2023-06-14T04:09:50;16.70;91.10
10802;DHT22;5453;50.852;7.102;2023-06-14T04:12:23;16.70;91.20
10802;DHT22;5453;50.852;7.102;2023-06-14T04:14:57;16.80;91.30
10802;DHT22;5453;50.852;7.102;2023-06-14T04:17:29;16.80;91.50
10802;DHT22;5453;50.852;7.102;2023-06-14T04:20:04;16.80;91.50
10802;DHT22;5453;50.852;7.102;2023-06-14T04:22:40;16.90;91.50
10802;DHT22;5453;50.852;7.102;2023-06-14T04:25:15;16.90;91.40
10802;DHT22;5453;50.852;7.102;2023-06-14T04:27:50;16.90;91.60
10802;DHT22;5453;50.852;7.102;2023-06-14T04:30:22;17.00;91.70
10802;DHT22;5453;50.852;7.102;2023-06-14T04:32:57;17.00;91.80
10802;DHT22;5453;50.852;7.102;2023-06-14T04:35:31;17.10;91.90
10802;DHT22;5453;50.852;7.102;2023-06-14T04:38:03;17.10;91.60
10802;DHT22;5453;50.852;7.102;2023-06-14T04:40:40;17.20;91.30
10802;DHT22;5453;50.852;7.102;2023-06-14T04:43:17;17.30;91.10
10802;DHT22;5453;50.852;7.102;2023-06-14T04:45:55;17.40;90.70
10802;DHT22;5453;50.852;7.102;2023-06-14T04:48:28;17.50;90.30
10802;DHT22;5453;50.852;7.102;2023-06-14T04:51:02;17.60;90.10
10802;DHT22;5453;50.852;7.102;2023-06-14T04:53:35;17.90;89.80
10802;DHT22;5453;50.852;7.102;2023-06-14T04:56:08;18.20;90.20
10802;DHT22;5453;50.852;7.102;2023-06-14T04:58:42;18.60;86.30
10802;DHT22;5453;50.852;7.102;2023-06-14T05:01:14;19.00;82.10
10802;DHT22;5453;50.852;7.102;2023-06-14T05:03:46;19.40;80.30
10802;DHT22;5453;50.852;7.102;2023-06-14T05:06:20;19.80;79.30
10802;DHT22;5453;50.852;7.102;2023-06-14T05:08:53;20.10;77.90
10802;DHT22;5453;50.852;7.102;2023-06-14T05:11:25;20.50;76.30
10802;DHT22;5453;50.852;7.102;2023-06-14T05:13:59;20.80;72.60
10802;DHT22;5453;50.852;7.102;2023-06-14T05:16:32;21.00;72.60
10802;DHT22;5453;50.852;7.102;2023-06-14T05:19:04;21.30;70.50
10802;DHT22;5453;50.852;7.102;2023-06-14T05:21:36;21.50;69.60
10802;DHT22;5453;50.852;7.102;2023-06-14T05:24:08;21.80;68.40
10802;DHT22;5453;50.852;7.102;2023-06-14T05:26:41;22.10;67.60
10802;DHT22;5453;50.852;7.102;2023-06-14T05:29:15;22.30;66.10
10802;DHT22;5453;50.852;7.102;2023-06-14T05:31:47;22.50;65.70
10802;DHT22;5453;50.852;7.102;2023-06-14T05:34:19;22.60;65.10
10802;DHT22;5453;50.852;7.102;2023-06-14T05:36:51;22.80;64.60
10802;DHT22;5453;50.852;7.102;2023-06-14T05:39:23;23.00;64.50
10802;DHT22;5453;50.852;7.102;2023-06-14T05:41:55;23.20;64.50
10802;DHT22;5453;50.852;7.102;2023-06-14T05:44:28;23.30;63.70
10802;DHT22;5453;50.852;7.102;2023-06-14T05:47:00;23.40;62.70
10802;DHT22;5453;50.852;7.102;2023-06-14T05:49:32;23.60;62.80
10802;DHT22;5453;50.852;7.102;2023-06-14T05:52:05;23.80;62.80
10802;DHT22;5453;50.852;7.102;2023-06-14T05:54:38;24.00;61.90
10802;DHT22;5453;50.852;7.102;2023-06-14T05:57:11;24.10;61.50
10802;DHT22;5453;50.852;7.102;2023-06-14T05:59:45;24.30;60.80
10802;DHT22;5453;50.852;7.102;2023-06-14T06:02:17;24.40;60.50
10802;DHT22;5453;50.852;7.102;2023-06-14T06:04:49;24.60;59.70
10802;DHT22;5453;50.852;7.102;2023-06-14T06:07:21;24.70;60.10
10802;DHT22;5453;50.852;7.102;2023-06-14T06:09:53;24.80;59.20
10802;DHT22;5453;50.852;7.102;2023-06-14T06:12:26;24.90;59.30
10802;DHT22;5453;50.852;7.102;2023-06-14T06:14:59;24.90;59.40
10802;DHT22;5453;50.852;7.102;2023-06-14T06:17:31;25.20;59.30
10802;DHT22;5453;50.852;7.102;2023-06-14T06:20:04;25.30;58.40
10802;DHT22;5453;50.852;7.102;2023-06-14T06:22:38;25.40;58.00
10802;DHT22;5453;50.852;7.102;2023-06-14T06:25:10;25.20;57.30
10802;DHT22;5453;50.852;7.102;2023-06-14T06:27:42;25.10;57.90
10802;DHT22;5453;50.852;7.102;2023-06-14T06:30:16;25.00;58.10
10802;DHT22;5453;50.852;7.102;2023-06-14T06:32:48;25.00;58.20
10802;DHT22;5453;50.852;7.102;2023-06-14T06:35:21;25.10;58.60
10802;DHT22;5453;50.852;7.102;2023-06-14T06:37:53;25.10;58.20
10802;DHT22;5453;50.852;7.102;2023-06-14T06:40:26;25.00;58.20
10802;DHT22;5453;50.852;7.102;2023-06-14T06:42:58;24.90;58.30
10802;DHT22;5453;50.852;7.102;2023-06-14T06:45:33;24.90;58.90
10802;DHT22;5453;50.852;7.102;2023-06-14T06:48:05;24.80;58.40
10802;DHT22;5453;50.852;7.102;2023-06-14T06:50:37;24.70;59.60
10802;DHT22;5453;50.852;7.102;2023-06-14T06:53:09;24.60;59.60
10802;DHT22;5453;50.852;7.102;2023-06-14T06:55:42;24.60;59.40
10802;DHT22;5453;50.852;7.102;2023-06-14T06:58:14;24.60;59.60
10802;DHT22;5453;50.852;7.102;2023-06-14T07:00:47;24.70;59.60
10802;DHT22;5453;50.852;7.102;2023-06-14T07:03:20;24.70;59.60
10802;DHT22;5453;50.852;7.102;2023-06-14T07:05:52;24.70;59.40
10802;DHT22;5453;50.852;7.102;2023-06-14T07:08:24;24.70;59.00
10802;DHT22;5453;50.852;7.102;2023-06-14T07:10:56;24.80;58.60
10802;DHT22;5453;50.852;7.102;2023-06-14T07:13:28;24.80;58.20
10802;DHT22;5453;50.852;7.102;2023-06-14T07:16:04;24.80;58.30
10802;DHT22;5453;50.852;7.102;2023-06-14T07:18:36;24.80;58.20
10802;DHT22;5453;50.852;7.102;2023-06-14T07:21:08;24.90;58.70
10802;DHT22;5453;50.852;7.102;2023-06-14T07:23:40;25.00;58.00
10802;DHT22;5453;50.852;7.102;2023-06-14T07:26:12;25.10;58.00
10802;DHT22;5453;50.852;7.102;2023-06-14T07:28:45;25.20;58.30
10802;DHT22;5453;50.852;7.102;2023-06-14T07:31:19;25.40;57.70
10802;DHT22;5453;50.852;7.102;2023-06-14T07:33:51;25.50;57.10
10802;DHT22;5453;50.852;7.102;2023-06-14T07:36:23;25.60;56.90
10802;DHT22;5453;50.852;7.102;2023-06-14T07:38:56;25.60;56.00
10802;DHT22;5453;50.852;7.102;2023-06-14T07:41:28;25.70;57.00
10802;DHT22;5453;50.852;7.102;2023-06-14T07:44:00;25.70;56.00
10802;DHT22;5453;50.852;7.102;2023-06-14T07:46:33;25.70;55.20
10802;DHT22;5453;50.852;7.102;2023-06-14T07:49:05;25.80;55.40
10802;DHT22;5453;50.852;7.102;2023-06-14T07:51:37;25.80;55.20
10802;DHT22;5453;50.852;7.102;2023-06-14T07:54:10;25.90;54.30
10802;DHT22;5453;50.852;7.102;2023-06-14T07:56:42;25.90;53.60
10802;DHT22;5453;50.852;7.102;2023-06-14T07:59:14;26.00;54.00
10802;DHT22;5453;50.852;7.102;2023-06-14T08:01:48;26.10;53.10
10802;DHT22;5453;50.852;7.102;2023-06-14T08:04:20;26.20;52.70
10802;DHT22;5453;50.852;7.102;2023-06-14T08:06:52;26.40;53.30
10802;DHT22;5453;50.852;7.102;2023-06-14T08:09:24;26.60;52.40
10802;DHT22;5453;50.852;7.102;2023-06-14T08:11:56;26.80;51.80
10802;DHT22;5453;50.852;7.102;2023-06-14T08:14:28;26.80;52.10
10802;DHT22;5453;50.852;7.102;2023-06-14T08:17:02;26.90;51.00
10802;DHT22;5453;50.852;7.102;2023-06-14T08:19:34;27.10;51.00
10802;DHT22;5453;50.852;7.102;2023-06-14T08:22:06;27.50;50.60
10802;DHT22;5453;50.852;7.102;2023-06-14T08:24:38;27.80;50.10
10802;DHT22;5453;50.852;7.102;2023-06-14T08:27:11;28.20;49.30
10802;DHT22;5453;50.852;7.102;2023-06-14T08:29:44;28.50;48.50
10802;DHT22;5453;50.852;7.102;2023-06-14T08:32:17;28.80;47.80
10802;DHT22;5453;50.852;7.102;2023-06-14T08:34:49;28.90;48.70
10802;DHT22;5453;50.852;7.102;2023-06-14T08:37:22;29.50;47.80
10802;DHT22;5453;50.852;7.102;2023-06-14T08:39:54;30.00;46.90
10802;DHT22;5453;50.852;7.102;2023-06-14T08:42:27;30.90;46.40
10802;DHT22;5453;50.852;7.102;2023-06-14T08:44:59;31.80;45.60
10802;DHT22;5453;50.852;7.102;2023-06-14T08:47:32;32.40;44.40
10802;DHT22;5453;50.852;7.102;2023-06-14T08:50:08;32.70;43.50
10802;DHT22;5453;50.852;7.102;2023-06-14T08:52:41;33.50;44.00
10802;DHT22;5453;50.852;7.102;2023-06-14T08:55:22;34.10;42.20
10802;DHT22;5453;50.852;7.102;2023-06-14T08:57:58;34.40;41.70
10802;DHT22;5453;50.852;7.102;2023-06-14T09:00:30;34.70;41.00
10802;DHT22;5453;50.852;7.102;2023-06-14T09:03:04;34.60;41.10
10802;DHT22;5453;50.852;7.102;2023-06-14T09:05:43;34.80;41.20
10802;DHT22;5453;50.852;7.102;2023-06-14T09:08:16;34.40;40.60
10802;DHT22;5453;50.852;7.102;2023-06-14T09:10:50;33.80;40.30
10802;DHT22;5453;50.852;7.102;2023-06-14T09:13:22;33.70;41.40
10802;DHT22;5453;50.852;7.102;2023-06-14T09:15:54;33.50;41.00
10802;DHT22;5453;50.852;7.102;2023-06-14T09:18:35;33.20;41.10
10802;DHT22;5453;50.852;7.102;2023-06-14T09:21:08;33.60;40.80
10802;DHT22;5453;50.852;7.102;2023-06-14T09:23:41;33.90;40.50
10802;DHT22;5453;50.852;7.102;2023-06-14T09:26:15;34.10;40.00
10802;DHT22;5453;50.852;7.102;2023-06-14T09:28:49;33.90;39.90
10802;DHT22;5453;50.852;7.102;2023-06-14T09:31:22;33.50;40.50
10802;DHT22;5453;50.852;7.102;2023-06-14T09:33:55;32.30;40.70
10802;DHT22;5453;50.852;7.102;2023-06-14T09:36:27;31.60;42.80
10802;DHT22;5453;50.852;7.102;2023-06-14T09:39:03;31.30;42.60
10802;DHT22;5453;50.852;7.102;2023-06-14T09:41:37;30.70;42.40
10802;DHT22;5453;50.852;7.102;2023-06-14T09:44:11;30.00;43.00
10802;DHT22;5453;50.852;7.102;2023-06-14T09:46:43;29.50;44.60
10802;DHT22;5453;50.852;7.102;2023-06-14T09:49:17;29.30;44.50
10802;DHT22;5453;50.852;7.102;2023-06-14T09:51:51;29.20;44.60
10802;DHT22;5453;50.852;7.102;2023-06-14T09:54:25;29.10;44.60
10802;DHT22;5453;50.852;7.102;2023-06-14T09:56:58;29.00;45.70
10802;DHT22;5453;50.852;7.102;2023-06-14T09:59:31;28.90;46.30
10802;DHT22;5453;50.852;7.102;2023-06-14T10:02:11;28.80;45.30
10802;DHT22;5453;50.852;7.102;2023-06-14T10:04:57;28.90;45.50
10802;DHT22;5453;50.852;7.102;2023-06-14T10:07:34;28.90;45.70
10802;DHT22;5453;50.852;7.102;2023-06-14T10:10:08;29.00;45.60
10802;DHT22;5453;50.852;7.102;2023-06-14T10:12:40;29.00;45.20
10802;DHT22;5453;50.852;7.102;2023-06-14T10:15:19;29.10;45.70
10802;DHT22;5453;50.852;7.102;2023-06-14T10:17:57;29.10;46.00
10802;DHT22;5453;50.852;7.102;2023-06-14T10:20:39;29.00;44.60
10802;DHT22;5453;50.852;7.102;2023-06-14T10:23:18;28.80;44.70
10802;DHT22;5453;50.852;7.102;2023-06-14T10:25:54;28.60;45.20
10802;DHT22;5453;50.852;7.102;2023-06-14T10:28:28;28.70;46.30
10802;DHT22;5453;50.852;7.102;2023-06-14T10:31:05;28.70;46.20
10802;DHT22;5453;50.852;7.102;2023-06-14T10:33:48;28.90;46.50
10802;DHT22;5453;50.852;7.102;2023-06-14T10:36:27;29.10;46.40
10802;DHT22;5453;50.852;7.102;2023-06-14T10:39:04;29.20;46.80
10802;DHT22;5453;50.852;7.102;2023-06-14T10:41:39;29.30;46.60
10802;DHT22;5453;50.852;7.102;2023-06-14T10:44:40;29.30;47.00
10802;DHT22;5453;50.852;7.102;2023-06-14T10:47:31;29.30;47.50
10802;DHT22;5453;50.852;7.102;2023-06-14T10:50:07;29.30;46.20
10802;DHT22;5453;50.852;7.102;2023-06-14T10:52:42;29.20;45.50
10802;DHT22;5453;50.852;7.102;2023-06-14T10:55:16;29.10;46.10
10802;DHT22;5453;50.852;7.102;2023-06-14T10:57:51;28.90;46.00
10802;DHT22;5453;50.852;7.102;2023-06-14T11:00:28;28.70;45.10
10802;DHT22;5453;50.852;7.102;2023-06-14T11:03:30;28.60;45.30
10802;DHT22;5453;50.852;7.102;2023-06-14T11:06:16;28.50;45.70
10802;DHT22;5453;50.852;7.102;2023-06-14T11:09:11;28.60;46.20
10802;DHT22;5453;50.852;7.102;2023-06-14T11:12:10;28.80;47.00
10802;DHT22;5453;50.852;7.102;2023-06-14T11:14:42;28.80;46.40
10802;DHT22;5453;50.852;7.102;2023-06-14T11:17:17;28.70;46.80
10802;DHT22;5453;50.852;7.102;2023-06-14T11:19:49;28.60;47.10
10802;DHT22;5453;50.852;7.102;2023-06-14T11:22:21;28.60;46.30
10802;DHT22;5453;50.852;7.102;2023-06-14T11:24:55;28.50;46.50
10802;DHT22;5453;50.852;7.102;2023-06-14T11:27:28;28.50;46.40
10802;DHT22;5453;50.852;7.102;2023-06-14T11:30:00;28.60;47.40
10802;DHT22;5453;50.852;7.102;2023-06-14T11:32:32;28.60;48.00
10802;DHT22;5453;50.852;7.102;2023-06-14T11:35:05;28.60;47.50
10802;DHT22;5453;50.852;7.102;2023-06-14T11:37:38;28.70;47.50
10802;DHT22;5453;50.852;7.102;2023-06-14T11:40:13;28.80;47.40
10802;DHT22;5453;50.852;7.102;2023-06-14T11:42:45;28.90;47.00
10802;DHT22;5453;50.852;7.102;2023-06-14T11:45:18;28.80;47.10
10802;DHT22;5453;50.852;7.102;2023-06-14T11:47:50;28.60;47.80
10802;DHT22;5453;50.852;7.102;2023-06-14T11:50:22;28.30;47.90
10802;DHT22;5453;50.852;7.102;2023-06-14T11:52:55;28.20;48.50
10802;DHT22;5453;50.852;7.102;2023-06-14T11:55:29;28.30;49.50
10802;DHT22;5453;50.852;7.102;2023-06-14T11:58:02;28.30;49.50
10802;DHT22;5453;50.852;7.102;2023-06-14T12:00:35;28.40;48.70
10802;DHT22;5453;50.852;7.102;2023-06-14T12:03:08;28.40;48.60
10802;DHT22;5453;50.852;7.102;2023-06-14T12:05:40;28.40;48.40
10802;DHT22;5453;50.852;7.102;2023-06-14T12:08:12;28.40;48.40
10802;DHT22;5453;50.852;7.102;2023-06-14T12:10:51;28.20;49.10
10802;DHT22;5453;50.852;7.102;2023-06-14T12:13:25;28.20;48.20
10802;DHT22;5453;50.852;7.102;2023-06-14T12:15:58;28.10;48.60
10802;DHT22;5453;50.852;7.102;2023-06-14T12:18:34;28.10;48.40
10802;DHT22;5453;50.852;7.102;2023-06-14T12:21:07;28.10;47.80
10802;DHT22;5453;50.852;7.102;2023-06-14T12:23:43;27.90;48.20
10802;DHT22;5453;50.852;7.102;2023-06-14T12:26:19;27.80;48.20
10802;DHT22;5453;50.852;7.102;2023-06-14T12:28:52;27.80;47.90
10802;DHT22;5453;50.852;7.102;2023-06-14T12:31:24;27.70;48.10
10802;DHT22;5453;50.852;7.102;2023-06-14T12:33:56;27.70;48.80
10802;DHT22;5453;50.852;7.102;2023-06-14T12:36:28;27.70;48.30
10802;DHT22;5453;50.852;7.102;2023-06-14T12:39:00;27.80;48.10
10802;DHT22;5453;50.852;7.102;2023-06-14T12:41:33;27.80;48.00
10802;DHT22;5453;50.852;7.102;2023-06-14T12:44:07;27.80;46.90
10802;DHT22;5453;50.852;7.102;2023-06-14T12:46:39;27.70;47.60
10802;DHT22;5453;50.852;7.102;2023-06-14T12:49:12;27.70;47.80
10802;DHT22;5453;50.852;7.102;2023-06-14T12:51:45;27.70;46.90
10802;DHT22;5453;50.852;7.102;2023-06-14T12:54:17;27.70;47.50
10802;DHT22;5453;50.852;7.102;2023-06-14T12:56:50;27.60;47.70
10802;DHT22;5453;50.852;7.102;2023-06-14T12:59:23;27.50;48.70
10802;DHT22;5453;50.852;7.102;2023-06-14T13:01:55;27.50;48.50
10802;DHT22;5453;50.852;7.102;2023-06-14T13:04:27;27.40;48.70
10802;DHT22;5453;50.852;7.102;2023-06-14T13:07:00;27.40;49.70
10802;DHT22;5453;50.852;7.102;2023-06-14T13:09:32;27.50;49.10
10802;DHT22;5453;50.852;7.102;2023-06-14T13:12:06;27.50;49.50
10802;DHT22;5453;50.852;7.102;2023-06-14T13:14:41;27.50;49.10
10802;DHT22;5453;50.852;7.102;2023-06-14T13:17:13;27.40;49.70
10802;DHT22;5453;50.852;7.102;2023-06-14T13:19:45;27.30;48.80
10802;DHT22;5453;50.852;7.102;2023-06-14T13:22:18;27.30;49.20
10802;DHT22;5453;50.852;7.102;2023-06-14T13:24:50;27.40;49.00
10802;DHT22;5453;50.852;7.102;2023-06-14T13:27:23;27.40;49.50
10802;DHT22;5453;50.852;7.102;2023-06-14T13:29:55;27.40;49.90
10802;DHT22;5453;50.852;7.102;2023-06-14T13:32:27;27.30;49.70
10802;DHT22;5453;50.852;7.102;2023-06-14T13:34:59;27.20;51.00
10802;DHT22;5453;50.852;7.102;2023-06-14T13:37:32;27.20;50.70
10802;DHT22;5453;50.852;7.102;2023-06-14T13:40:05;27.20;49.90
10802;DHT22;5453;50.852;7.102;2023-06-14T13:42:39;27.20;49.90
10802;DHT22;5453;50.852;7.102;2023-06-14T13:45:12;27.30;50.60
10802;DHT22;5453;50.852;7.102;2023-06-14T13:47:44;27.30;50.50
10802;DHT22;5453;50.852;7.102;2023-06-14T13:50:19;27.30;50.40
10802;DHT22;5453;50.852;7.102;2023-06-14T13:52:51;27.40;50.40
10802;DHT22;5453;50.852;7.102;2023-06-14T13:55:23;27.40;50.70
10802;DHT22;5453;50.852;7.102;2023-06-14T13:57:56;27.40;50.10
10802;DHT22;5453;50.852;7.102;2023-06-14T14:00:28;27.40;50.90
10802;DHT22;5453;50.852;7.102;2023-06-14T14:03:01;27.30;49.40
10802;DHT22;5453;50.852;7.102;2023-06-14T14:05:34;27.30;49.50
10802;DHT22;5453;50.852;7.102;2023-06-14T14:08:06;27.30;50.30
10802;DHT22;5453;50.852;7.102;2023-06-14T14:10:38;27.30;51.00
10802;DHT22;5453;50.852;7.102;2023-06-14T14:13:11;27.20;49.60
10802;DHT22;5453;50.852;7.102;2023-06-14T14:15:45;27.10;49.70
10802;DHT22;5453;50.852;7.102;2023-06-14T14:18:17;27.10;49.70
10802;DHT22;5453;50.852;7.102;2023-06-14T14:20:49;27.10;49.70
10802;DHT22;5453;50.852;7.102;2023-06-14T14:23:22;27.10;49.10
10802;DHT22;5453;50.852;7.102;2023-06-14T14:25:54;27.10;49.20
10802;DHT22;5453;50.852;7.102;2023-06-14T14:28:27;26.90;49.40
10802;DHT22;5453;50.852;7.102;2023-06-14T14:30:59;26.90;48.80
10802;DHT22;5453;50.852;7.102;2023-06-14T14:33:31;26.80;49.30
10802;DHT22;5453;50.852;7.102;2023-06-14T14:36:05;26.70;49.70
10802;DHT22;5453;50.852;7.102;2023-06-14T14:38:38;26.70;49.80
10802;DHT22;5453;50.852;7.102;2023-06-14T14:41:10;26.70;49.80
10802;DHT22;5453;50.852;7.102;2023-06-14T14:43:44;26.60;49.70
10802;DHT22;5453;50.852;7.102;2023-06-14T14:46:16;26.60;50.40
10802;DHT22;5453;50.852;7.102;2023-06-14T14:48:48;26.60;50.60
10802;DHT22;5453;50.852;7.102;2023-06-14T14:51:20;26.70;50.50
10802;DHT22;5453;50.852;7.102;2023-06-14T14:53:53;26.80;50.30
10802;DHT22;5453;50.852;7.102;2023-06-14T14:56:25;26.80;49.60
10802;DHT22;5453;50.852;7.102;2023-06-14T14:58:59;26.70;50.00
10802;DHT22;5453;50.852;7.102;2023-06-14T15:01:31;26.70;50.00
10802;DHT22;5453;50.852;7.102;2023-06-14T15:04:03;26.80;50.10
10802;DHT22;5453;50.852;7.102;2023-06-14T15:06:36;26.80;50.00
10802;DHT22;5453;50.852;7.102;2023-06-14T15:09:10;26.80;49.60
10802;DHT22;5453;50.852;7.102;2023-06-14T15:11:42;26.70;49.60
10802;DHT22;5453;50.852;7.102;2023-06-14T15:14:16;26.60;50.10
10802;DHT22;5453;50.852;7.102;2023-06-14T15:16:48;26.50;49.90
10802;DHT22;5453;50.852;7.102;2023-06-14T15:19:20;26.40;48.60
10802;DHT22;5453;50.852;7.102;2023-06-14T15:21:52;26.40;49.30
10802;DHT22;5453;50.852;7.102;2023-06-14T15:24:25;26.30;49.10
10802;DHT22;5453;50.852;7.102;2023-06-14T15:26:57;26.30;49.70
10802;DHT22;5453;50.852;7.102;2023-06-14T15:29:31;26.40;49.30
10802;DHT22;5453;50.852;7.102;2023-06-14T15:32:04;26.40;49.30
10802;DHT22;5453;50.852;7.102;2023-06-14T15:34:37;26.50;49.50
10802;DHT22;5453;50.852;7.102;2023-06-14T15:37:09;26.60;49.60
10802;DHT22;5453;50.852;7.102;2023-06-14T15:39:41;26.70;50.10
10802;DHT22;5453;50.852;7.102;2023-06-14T15:42:14;26.70;50.10
10802;DHT22;5453;50.852;7.102;2023-06-14T15:44:47;26.70;50.10
10802;DHT22;5453;50.852;7.102;2023-06-14T15:47:19;26.50;50.40
10802;DHT22;5453;50.852;7.102;2023-06-14T15:49:51;26.30;50.00
10802;DHT22;5453;50.852;7.102;2023-06-14T15:52:23;26.10;50.30
10802;DHT22;5453;50.852;7.102;2023-06-14T15:54:55;25.90;50.70
10802;DHT22;5453;50.852;7.102;2023-06-14T15:57:27;25.90;50.90
10802;DHT22;5453;50.852;7.102;2023-06-14T16:00:01;25.90;51.20
10802;DHT22;5453;50.852;7.102;2023-06-14T16:02:35;26.00;50.80
10802;DHT22;5453;50.852;7.102;2023-06-14T16:05:08;26.00;50.60
10802;DHT22;5453;50.852;7.102;2023-06-14T16:07:40;26.00;51.20
10802;DHT22;5453;50.852;7.102;2023-06-14T16:10:12;26.00;51.00
10802;DHT22;5453;50.852;7.102;2023-06-14T16:12:44;26.00;51.00
10802;DHT22;5453;50.852;7.102;2023-06-14T16:15:17;26.00;50.80
10802;DHT22;5453;50.852;7.102;2023-06-14T16:17:49;25.90;49.90
10802;DHT22;5453;50.852;7.102;2023-06-14T16:20:21;25.80;49.30
10802;DHT22;5453;50.852;7.102;2023-06-14T16:22:53;25.70;49.90
10802;DHT22;5453;50.852;7.102;2023-06-14T16:25:26;25.70;50.30